createdAt,value
2023-02-14T00:00:53.120Z,2.29
2023-02-14T00:04:55.784Z,2.29
2023-02-14T00:08:58.420Z,2.26
2023-02-14T00:13:02.331Z,2.22
2023-02-14T00:17:05.438Z,2.18
2023-02-14T00:21:08.008Z,2.13
2023-02-14T00:25:10.596Z,2.17
2023-02-14T00:29:16.970Z,2.15
2023-02-14T00:33:19.528Z,2.09
2023-02-14T00:37:22.164Z,2.06
2023-02-14T00:41:24.816Z,2.04
2023-02-14T00:45:28.790Z,1.97
2023-02-14T00:49:31.397Z,1.92
2023-02-14T00:53:33.965Z,1.89
2023-02-14T00:57:36.532Z,1.88
2023-02-14T01:01:40.800Z,1.88
2023-02-14T01:05:43.397Z,1.78
2023-02-14T01:09:45.953Z,1.65
2023-02-14T01:13:50.309Z,1.70
2023-02-14T01:17:54.319Z,1.62
2023-02-14T01:21:56.907Z,1.63
2023-02-14T01:25:59.473Z,1.71
2023-02-14T01:30:02.117Z,1.77
2023-02-14T01:34:06.202Z,1.77
2023-02-14T01:38:08.776Z,1.76
2023-02-14T01:42:11.842Z,1.72
2023-02-14T01:46:14.549Z,1.68
2023-02-14T01:50:22.701Z,1.68
2023-02-14T01:54:28.238Z,1.65
2023-02-14T01:58:36.435Z,1.71
2023-02-14T02:02:39.092Z,1.73
2023-02-14T02:06:46.434Z,1.57
2023-02-14T02:10:49.014Z,1.48
2023-02-14T02:14:55.287Z,1.37
2023-02-14T02:19:13.698Z,1.36
2023-02-14T02:23:48.887Z,1.37
2023-02-14T02:28:23.810Z,1.34
2023-02-14T02:33:04.782Z,1.40
2023-02-14T02:37:26.070Z,1.31
2023-02-14T02:41:38.611Z,1.22
2023-02-14T02:46:05.746Z,1.14
2023-02-14T02:50:39.023Z,1.18
2023-02-14T02:54:49.852Z,1.19
2023-02-14T02:58:55.664Z,1.09
2023-02-14T03:03:16.665Z,0.92
2023-02-14T03:07:39.638Z,0.71
2023-02-14T03:11:55.069Z,0.47
2023-02-14T03:16:24.694Z,0.27
2023-02-14T03:20:37.665Z,0.11
2023-02-14T03:24:47.328Z,-0.01
2023-02-14T03:28:58.957Z,-0.17
2023-02-14T03:33:07.170Z,-0.22
2023-02-14T03:37:14.076Z,-0.15
2023-02-14T03:41:21.162Z,-0.13
2023-02-14T03:45:30.069Z,-0.28
2023-02-14T03:49:38.228Z,-0.42
2023-02-14T03:53:45.929Z,-0.58
2023-02-14T03:57:56.748Z,-0.65
2023-02-14T04:02:05.208Z,-0.78
2023-02-14T04:06:08.091Z,-0.87
2023-02-14T04:10:11.476Z,-1.00
2023-02-14T04:14:14.262Z,-1.04
2023-02-14T04:18:35.580Z,-0.90
2023-02-14T04:22:38.198Z,-0.83
2023-02-14T04:26:54.259Z,-0.97
2023-02-14T04:30:57.183Z,-1.03
2023-02-14T04:35:01.324Z,-0.93
2023-02-14T04:39:04.165Z,-1.01
2023-02-14T04:43:07.530Z,-1.02
2023-02-14T04:47:10.249Z,-1.05
2023-02-14T04:51:14.254Z,-1.01
2023-02-14T04:55:16.900Z,-1.14
2023-02-14T04:59:19.684Z,-1.07
2023-02-14T05:03:22.329Z,-1.08
2023-02-14T05:07:26.367Z,-1.11
2023-02-14T05:11:29.561Z,-0.97
2023-02-14T05:15:32.694Z,-0.93
2023-02-14T05:19:35.349Z,-0.93
2023-02-14T05:23:39.708Z,-0.94
2023-02-14T05:27:42.312Z,-0.61
2023-02-14T05:31:45.001Z,1.03
2023-02-14T05:35:47.657Z,0.75
2023-02-14T05:39:51.657Z,0.40
2023-02-14T05:43:54.303Z,0.15
2023-02-14T05:47:57.060Z,0.11
2023-02-14T05:51:59.686Z,-0.18
2023-02-14T05:56:04.025Z,-0.43
2023-02-14T06:00:08.279Z,-0.52
2023-02-14T06:04:10.959Z,-0.63
2023-02-14T06:08:13.624Z,-0.61
2023-02-14T06:12:17.679Z,-0.63
2023-02-14T06:16:20.473Z,-0.60
2023-02-14T06:20:24.104Z,-0.67
2023-02-14T06:24:26.782Z,-0.67
2023-02-14T06:28:30.796Z,-0.70
2023-02-14T06:32:33.452Z,-0.71
2023-02-14T06:36:36.149Z,-0.68
2023-02-14T06:40:38.793Z,-0.84
2023-02-14T06:44:42.767Z,-0.72
2023-02-14T06:48:45.841Z,-0.67
2023-02-14T06:52:48.483Z,-0.57
2023-02-14T06:56:51.112Z,-0.55
2023-02-14T07:00:57.717Z,-0.47
2023-02-14T07:05:00.578Z,-0.48
2023-02-14T07:09:03.277Z,-0.51
2023-02-14T07:13:06.651Z,-0.57
2023-02-14T07:17:10.787Z,-0.58
2023-02-14T07:21:13.419Z,-0.57
2023-02-14T07:25:16.078Z,-0.56
2023-02-14T07:29:18.701Z,-0.51
2023-02-14T07:33:22.731Z,-0.49
2023-02-14T07:37:25.614Z,-0.43
2023-02-14T07:41:28.319Z,-0.42
2023-02-14T07:45:30.937Z,-0.38
2023-02-14T07:49:35.634Z,-0.29
2023-02-14T07:53:38.309Z,-0.34
2023-02-14T07:57:41.527Z,-0.29
2023-02-14T08:01:44.710Z,-0.28
2023-02-14T08:05:57.112Z,-0.19
2023-02-14T08:09:59.993Z,-0.19
2023-02-14T08:14:02.674Z,-0.19
2023-02-14T08:18:05.441Z,-0.17
2023-02-14T08:22:09.501Z,-0.12
2023-02-14T08:26:12.145Z,-0.08
2023-02-14T08:30:15.740Z,-0.05
2023-02-14T08:34:18.758Z,0.04
2023-02-14T08:38:23.297Z,0.10
2023-02-14T08:42:26.049Z,0.14
2023-02-14T08:46:29.340Z,0.27
2023-02-14T08:50:32.528Z,0.26
2023-02-14T08:54:36.586Z,0.17
2023-02-14T08:58:40.094Z,0.13
2023-02-14T09:02:42.925Z,0.10
2023-02-14T09:06:45.575Z,-0.01
2023-02-14T09:10:50.479Z,0.00
2023-02-14T09:14:53.283Z,0.04
2023-02-14T09:18:56.701Z,0.02
2023-02-14T09:22:59.445Z,0.05
2023-02-14T09:27:03.494Z,0.05
2023-02-14T09:31:11.145Z,0.04
2023-02-14T09:35:13.909Z,0.03
2023-02-14T09:39:16.679Z,-0.01
2023-02-14T09:43:24.810Z,0.05
2023-02-14T09:47:35.295Z,-0.01
2023-02-14T09:51:39.328Z,0.01
2023-02-14T09:55:48.769Z,0.07
2023-02-14T09:59:58.429Z,0.19
2023-02-14T10:04:21.464Z,0.11
2023-02-14T10:08:36.865Z,0.15
2023-02-14T10:12:44.336Z,0.13
2023-02-14T10:16:52.441Z,0.13
2023-02-14T10:20:59.021Z,0.16
2023-02-14T10:25:09.133Z,0.26
2023-02-14T10:29:16.978Z,0.28
2023-02-14T10:33:22.826Z,0.17
2023-02-14T10:37:39.840Z,0.13
2023-02-14T10:41:51.420Z,0.21
2023-02-14T10:46:01.888Z,0.24
2023-02-14T10:50:16.398Z,0.30
2023-02-14T10:54:23.584Z,0.32
2023-02-14T10:58:30.096Z,0.32
2023-02-14T11:02:37.337Z,0.41
2023-02-14T11:06:41.393Z,0.49
2023-02-14T11:10:44.256Z,0.54
2023-02-14T11:14:46.965Z,0.55
2023-02-14T11:19:09.584Z,0.53
2023-02-14T11:23:21.543Z,0.56
2023-02-14T11:27:24.196Z,0.56
2023-02-14T11:31:33.268Z,0.60
2023-02-14T11:35:37.114Z,0.62
2023-02-14T11:39:41.201Z,0.65
2023-02-14T11:43:47.034Z,0.76
2023-02-14T11:47:49.722Z,0.67
2023-02-14T11:51:52.625Z,0.68
2023-02-14T11:56:00.753Z,0.73
2023-02-14T12:00:14.022Z,0.92
2023-02-14T12:04:22.866Z,0.85
2023-02-14T12:08:27.356Z,0.93
2023-02-14T12:12:31.351Z,0.98
2023-02-14T12:16:39.703Z,1.02
2023-02-14T12:20:50.272Z,0.98
2023-02-14T12:25:01.616Z,0.98
2023-02-14T12:29:13.976Z,0.96
2023-02-14T12:33:20.485Z,1.04
2023-02-14T12:37:38.486Z,1.08
2023-02-14T12:41:50.248Z,1.12
2023-02-14T12:46:08.422Z,1.13
2023-02-14T12:50:30.199Z,1.11
2023-02-14T12:54:46.068Z,1.12
2023-02-14T12:58:58.831Z,1.09
2023-02-14T13:03:31.976Z,1.09
2023-02-14T13:07:49.356Z,1.03
2023-02-14T13:12:04.772Z,1.08
2023-02-14T13:16:17.343Z,1.08
2023-02-14T13:20:43.783Z,1.07
2023-02-14T13:24:50.400Z,1.03
2023-02-14T13:28:56.630Z,1.10
2023-02-14T13:33:04.049Z,1.16
2023-02-14T13:37:13.328Z,1.09
2023-02-14T13:41:16.752Z,1.15
2023-02-14T13:45:53.788Z,1.11
2023-02-14T13:49:59.210Z,1.01
2023-02-14T13:54:03.295Z,0.99
2023-02-14T13:58:08.547Z,0.98
2023-02-14T14:02:40.941Z,0.99
2023-02-14T14:07:22.070Z,0.95
2023-02-14T14:11:54.019Z,1.01
2023-02-14T14:16:27.515Z,0.97
2023-02-14T14:20:44.894Z,1.02
2023-02-14T14:25:11.756Z,0.96
2023-02-14T14:29:20.509Z,0.89
2023-02-14T14:33:29.661Z,0.91
2023-02-14T14:37:33.554Z,0.88
2023-02-14T14:41:36.347Z,0.83
2023-02-14T14:45:40.783Z,0.72
2023-02-14T14:49:44.884Z,0.75
2023-02-14T14:53:51.568Z,0.71
2023-02-14T14:57:56.019Z,0.61
2023-02-14T15:01:59.068Z,0.47
2023-02-14T15:06:18.212Z,0.43
2023-02-14T15:10:26.045Z,0.45
2023-02-14T15:14:31.426Z,0.47
2023-02-14T15:18:34.236Z,0.49
2023-02-14T15:22:44.286Z,0.42
2023-02-14T15:26:49.603Z,0.34
2023-02-14T15:30:57.986Z,0.26
2023-02-14T15:35:03.137Z,0.35
2023-02-14T15:39:09.489Z,0.24
2023-02-14T15:43:22.879Z,0.33
2023-02-14T15:47:25.655Z,0.25
2023-02-14T15:51:32.237Z,0.15
2023-02-14T15:55:37.173Z,0.09
2023-02-14T15:59:43.201Z,0.06
2023-02-14T16:03:52.694Z,0.05
2023-02-14T16:08:03.473Z,0.05
2023-02-14T16:12:35.406Z,-0.07
2023-02-14T16:17:00.093Z,-0.11
2023-02-14T16:21:19.628Z,-0.17
2023-02-14T16:25:22.318Z,-0.26
2023-02-14T16:29:26.352Z,-0.35
2023-02-14T16:33:31.263Z,-0.36
2023-02-14T16:37:35.139Z,-0.35
2023-02-14T16:41:37.814Z,-0.43
2023-02-14T16:45:42.243Z,-0.12
2023-02-14T16:49:45.225Z,-0.26
2023-02-14T16:53:48.063Z,-0.44
2023-02-14T16:57:53.261Z,-0.50
2023-02-14T17:01:58.321Z,-0.63
2023-02-14T17:06:02.626Z,-0.73
2023-02-14T17:10:10.596Z,-0.71
2023-02-14T17:14:18.300Z,-0.77
2023-02-14T17:18:24.745Z,-0.80
2023-02-14T17:22:27.567Z,-0.80
2023-02-14T17:26:30.221Z,-0.76
2023-02-14T17:30:32.884Z,-0.78
2023-02-14T17:34:36.875Z,-0.88
2023-02-14T17:38:40.181Z,-0.94
2023-02-14T17:42:42.919Z,-1.03
2023-02-14T17:46:45.868Z,-0.97
2023-02-14T17:50:49.873Z,-1.04
2023-02-14T17:54:52.849Z,-1.03
2023-02-14T17:58:56.343Z,-1.05
2023-02-14T18:02:59.322Z,-1.06
2023-02-14T18:07:03.480Z,-1.02
2023-02-14T18:11:06.542Z,-1.07
2023-02-14T18:15:10.134Z,-1.08
2023-02-14T18:19:15.757Z,-1.15
2023-02-14T18:23:19.909Z,-1.20
2023-02-14T18:27:22.764Z,-1.35
2023-02-14T18:31:26.320Z,-1.36
2023-02-14T18:35:29.016Z,-1.26
2023-02-14T18:39:33.518Z,-1.18
2023-02-14T18:43:37.197Z,-1.15
2023-02-14T18:47:39.847Z,-1.26
2023-02-14T18:51:43.659Z,-1.42
2023-02-14T18:55:47.632Z,-1.47
2023-02-14T18:59:50.224Z,-1.47
2023-02-14T19:03:54.568Z,-1.47
2023-02-14T19:07:58.981Z,-1.50
2023-02-14T19:12:03.022Z,-1.54
2023-02-14T19:16:12.356Z,-1.61
2023-02-14T19:20:16.369Z,-1.64
2023-02-14T19:24:21.110Z,-1.55
2023-02-14T19:28:26.196Z,-1.57
2023-02-14T19:32:29.060Z,-1.44
2023-02-14T19:36:32.086Z,-1.50
2023-02-14T19:40:34.728Z,-1.58
2023-02-14T19:44:40.009Z,-1.49
2023-02-14T19:48:44.542Z,-1.52
2023-02-14T19:52:47.165Z,-1.49
2023-02-14T19:56:49.895Z,-1.44
2023-02-14T20:00:59.065Z,-1.43
2023-02-14T20:05:04.364Z,-1.42
2023-02-14T20:09:07.577Z,-1.50
2023-02-14T20:13:10.613Z,-1.46
2023-02-14T20:17:15.209Z,-1.60
2023-02-14T20:21:18.926Z,-1.68
2023-02-14T20:25:21.679Z,-1.76
2023-02-14T20:29:26.451Z,-1.85
2023-02-14T20:33:30.433Z,-1.84
2023-02-14T20:37:33.088Z,-1.83
2023-02-14T20:41:36.445Z,-1.84
2023-02-14T20:45:39.112Z,-1.88
2023-02-14T20:49:44.710Z,-1.86
2023-02-14T20:53:48.478Z,-1.83
2023-02-14T20:57:51.156Z,-1.85
2023-02-14T21:01:54.777Z,-1.85
2023-02-14T21:05:58.799Z,-1.83
2023-02-14T21:10:01.510Z,-1.79
2023-02-14T21:14:04.332Z,-1.78
2023-02-14T21:18:06.959Z,-1.77
2023-02-14T21:22:11.119Z,-1.77
2023-02-14T21:26:13.722Z,-1.80
2023-02-14T21:30:16.636Z,-1.83
2023-02-14T21:34:19.379Z,-1.92
2023-02-14T21:38:23.694Z,-1.95
2023-02-14T21:42:26.665Z,-1.92
2023-02-14T21:46:32.264Z,-1.94
2023-02-14T21:50:34.010Z,-1.89
2023-02-14T21:54:38.141Z,-1.79
2023-02-14T21:58:41.451Z,-1.97
2023-02-14T22:02:44.133Z,-1.94
2023-02-14T22:06:46.796Z,-1.87
2023-02-14T22:10:50.983Z,-1.82
2023-02-14T22:14:53.578Z,-1.90
2023-02-14T22:18:56.480Z,-1.86
2023-02-14T22:22:59.251Z,-1.80
2023-02-14T22:27:03.566Z,-1.83
2023-02-14T22:31:06.821Z,-1.86
2023-02-14T22:35:09.896Z,-1.82
2023-02-14T22:39:14.889Z,-1.87
2023-02-14T22:43:19.297Z,-1.95
2023-02-14T22:47:21.899Z,-1.97
2023-02-14T22:51:27.115Z,-1.97
2023-02-14T22:55:29.751Z,-1.95
2023-02-14T22:59:34.060Z,-1.99
2023-02-14T23:03:36.732Z,-1.98
2023-02-14T23:07:39.320Z,-2.07
2023-02-14T23:11:44.456Z,-2.10
2023-02-14T23:16:08.944Z,-2.10
2023-02-14T23:20:32.628Z,-2.05
2023-02-14T23:24:35.499Z,-2.14
2023-02-14T23:28:39.422Z,-2.17
2023-02-14T23:32:43.793Z,-2.08
2023-02-14T23:36:46.843Z,-2.03
2023-02-14T23:41:06.880Z,-2.08
2023-02-14T23:45:27.436Z,-2.11
2023-02-14T23:49:32.584Z,-2.07
2023-02-14T23:53:35.173Z,-2.11
2023-02-14T23:57:37.834Z,-2.28
